San Andres de Giles, Argentina
Current Conditions -  °F | °C
As of 2:00 PM on Thursday 18 Dec 2014 (Local Time) from SADF Reporting Station
Few Clouds Few Clouds  
Wind Chill: 86°   Ceiling: Unl
Heat Index: 86°   Visibility: 6mi
Dew Point: 57°   Wind: 5mph
Humidity: 37%   Direction: NA
Pressure: 29.8"   Gusts: NA
Location:  34.45°S, 59.45°W
Report Text: SADF 181700Z VRB04KT 9999 FEW025TCU 30/14 Q1009
Loading
Personal Weather Stations






























Interactive Weather Map New forecast layout! Learn more

10-Day Weather Forecast

Advertisements
Track Severe Weather on mobile